HomeShort term forecast

Short term forecast

Graphical weather forecast for the next 48 hours for Montreal:
Short term forecast
This weather forecast is automatically refreshed every 3 hours.

Hourly Experimental Forecast for the next 48 hours ®

Overall summary: Light rain until tomorrow morning.

 Date & Hour   Temp   Feel   Baro   Hum   Speed & Bearing   Wind Gust   Precip.%   Precip.   Visibility   Cloud cover   Conditions 
 09/12/2019 - 21:00  5.0°C  1.3°C  998.1 hPa  97%  18.2 km/h   35.6 km/h  100%  0.26 mm/h  15.5km  100%  Drizzle 
 09/12/2019 - 22:00  5.6°C  2.1°C  997.7 hPa  96%  17.6 km/h   33.5 km/h  71%  0.58 mm/h  16.1km  100%  Light Rain 
 09/12/2019 - 23:00  6.0°C  2.7°C  997.5 hPa  95%  16.6 km/h   31.3 km/h  50%  0.30 mm/h  16.1km  100%  Possible Drizzle 
 10/12/2019 - 00:00  6.3°C  3.1°C  997.2 hPa  94%  16.9 km/h   37.9 km/h  39%  0.18 mm/h  15.0km  99%  Possible Drizzle 
 10/12/2019 - 01:00  6.5°C  3.3°C  996.9 hPa  93%  17.4 km/h   45.7 km/h  31%  0.12 mm/h  13.9km  100%  Overcast 
 10/12/2019 - 02:00  6.6°C  3.4°C  996.9 hPa  93%  17.7 km/h   48.7 km/h  28%  0.09 mm/h  12.4km  91%  Overcast 
 10/12/2019 - 03:00  6.6°C  3.4°C  996.8 hPa  93%  17.4 km/h   48.4 km/h  50%  0.23 mm/h  11.0km  92%  Possible Drizzle 
 10/12/2019 - 04:00  6.7°C  3.5°C  996.7 hPa  94%  17.5 km/h   47.8 km/h  58%  0.35 mm/h  10.0km  98%  Possible Drizzle 
 10/12/2019 - 05:00  6.9°C  3.6°C  997.0 hPa  94%  19.3 km/h   52.4 km/h  55%  0.34 mm/h  10.3km  84%  Possible Drizzle 
 10/12/2019 - 06:00  7.2°C  3.7°C  997.8 hPa  96%  20.8 km/h   58.1 km/h  43%  0.29 mm/h  11.3km  95%  Possible Drizzle 
 10/12/2019 - 07:00  7.4°C  3.8°C  998.6 hPa  95%  23.2 km/h   60.3 km/h  25%  0.17 mm/h  12.2km  92%  Overcast 
 10/12/2019 - 08:00  7.7°C  3.7°C  999.3 hPa  90%  28.2 km/h   65.5 km/h  17%  0.08 mm/h  16.1km  78%  Windy and Mostly Cloudy 
 10/12/2019 - 09:00  7.5°C  3.1°C  1000.1 hPa  85%  33.8 km/h   65.9 km/h  26%  0.32 mm/h  16.1km  75%  Windy and Mostly Cloudy 
 10/12/2019 - 10:00  7.1°C  2.2°C  1001.3 hPa  82%  38.2 km/h   68.4 km/h  17%  0.06 mm/h  16.1km  81%  Windy and Mostly Cloudy 
 10/12/2019 - 11:00  6.2°C  0.9°C  1002.9 hPa  78%  39.8 km/h   66.8 km/h  15%  0.02 mm/h  16.1km  79%  Windy and Mostly Cloudy 
 10/12/2019 - 12:00  4.9°C  -0.8°C  1004.1 hPa  77%  38.4 km/h   62.4 km/h  14%  0.01 mm/h  16.1km  89%  Overcast 
 10/12/2019 - 13:00  3.4°C  -2.6°C  1005.5 hPa  76%  36.5 km/h   58.5 km/h  12%  0.01 mm/h  16.1km  96%  Overcast 
 10/12/2019 - 14:00  2.0°C  -4.1°C  1007.1 hPa  75%  33.8 km/h   56.0 km/h  10%  0.01 mm/h  16.1km  98%  Overcast 
 10/12/2019 - 15:00  0.7°C  -5.6°C  1009.0 hPa  75%  30.3 km/h   54.0 km/h  14%  0.02 mm/h  16.1km  98%  Overcast 
 10/12/2019 - 16:00  -0.7°C  -7.0°C  1010.8 hPa  74%  27.4 km/h   52.1 km/h  15%  0.03 mm/h  16.1km  97%  Overcast 
 10/12/2019 - 17:00  -1.9°C  -8.5°C  1012.9 hPa  70%  25.9 km/h   50.8 km/h  7%  0.02 mm/h  16.1km  96%  Overcast 
 10/12/2019 - 18:00  -3.1°C  -9.8°C  1015.0 hPa  67%  25.0 km/h   49.5 km/h  3%  0.01 mm/h  16.1km  95%  Overcast 
 10/12/2019 - 19:00  -3.9°C  -10.7°C  1016.8 hPa  64%  24.0 km/h   46.7 km/h  2%  0.01 mm/h  16.1km  91%  Overcast 
 10/12/2019 - 20:00  -4.7°C  -11.5°C  1018.2 hPa  61%  22.2 km/h   41.2 km/h  0%  --  16.1km  76%  Mostly Cloudy 
 10/12/2019 - 21:00  -5.2°C  -11.8°C  1019.5 hPa  59%  20.1 km/h   34.3 km/h  0%  --  16.1km  57%  Partly Cloudy 
 10/12/2019 - 22:00  -5.8°C  -12.2°C  1020.7 hPa  58%  18.1 km/h   28.6 km/h  0%  --  16.1km  46%  Partly Cloudy 
 10/12/2019 - 23:00  -6.3°C  -12.5°C  1021.6 hPa  56%  16.6 km/h   25.4 km/h  0%  --  16.1km  54%  Partly Cloudy 
 11/12/2019 - 00:00  -6.7°C  -12.7°C  1022.3 hPa  54%  15.3 km/h   23.6 km/h  0%  --  16.1km  71%  Mostly Cloudy 
 11/12/2019 - 01:00  -7.0°C  -12.7°C  1022.9 hPa  53%  13.7 km/h   21.6 km/h  0%  --  16.1km  81%  Mostly Cloudy 
 11/12/2019 - 02:00  -7.3°C  -12.5°C  1023.4 hPa  53%  11.6 km/h   18.8 km/h  0%  --  16.1km  78%  Mostly Cloudy 
 11/12/2019 - 03:00  -7.6°C  -12.1°C  1023.8 hPa  53%  9.3 km/h   16.0 km/h  0%  --  16.1km  69%  Mostly Cloudy 
 11/12/2019 - 04:00  -8.0°C  -11.9°C  1024.3 hPa  55%  7.4 km/h   13.4 km/h  1%  0.01 mm/h  16.1km  60%  Mostly Cloudy 
 11/12/2019 - 05:00  -8.4°C  -11.7°C  1024.6 hPa  58%  6.1 km/h   11.1 km/h  1%  0.01 mm/h  16.1km  56%  Partly Cloudy 
 11/12/2019 - 06:00  -8.6°C  -11.6°C  1024.9 hPa  60%  5.3 km/h   8.9 km/h  1%  0.01 mm/h  16.1km  50%  Partly Cloudy 
 11/12/2019 - 07:00  -8.4°C  -11.2°C  1025.1 hPa  60%  5.2 km/h   8.0 km/h  2%  0.01 mm/h  16.1km  45%  Partly Cloudy 
 11/12/2019 - 08:00  -7.9°C  -11.0°C  1025.0 hPa  59%  5.7 km/h   8.4 km/h  0%  --  16.1km  35%  Partly Cloudy 
 11/12/2019 - 09:00  -7.0°C  -10.5°C  1025.0 hPa  56%  6.9 km/h   10.1 km/h  0%  --  16.1km  23%  Clear 
 11/12/2019 - 10:00  -6.2°C  -10.1°C  1024.1 hPa  56%  8.3 km/h   13.1 km/h  0%  --  16.1km  18%  Clear 
 11/12/2019 - 11:00  -5.1°C  -9.3°C  1023.6 hPa  55%  9.8 km/h   18.3 km/h  0%  --  16.1km  34%  Partly Cloudy 
 11/12/2019 - 12:00  -3.7°C  -8.1°C  1022.4 hPa  53%  11.6 km/h   24.6 km/h  2%  0.01 mm/h  16.1km  59%  Partly Cloudy 
 11/12/2019 - 13:00  -2.7°C  -7.3°C  1021.4 hPa  53%  13.0 km/h   29.7 km/h  3%  0.01 mm/h  16.1km  77%  Mostly Cloudy 
 11/12/2019 - 14:00  -2.1°C  -6.7°C  1020.7 hPa  57%  13.4 km/h   32.2 km/h  4%  0.02 mm/h  16.1km  78%  Mostly Cloudy 
 11/12/2019 - 15:00  -2.2°C  -6.8°C  1020.2 hPa  62%  13.5 km/h   33.9 km/h  4%  0.04 mm/h  14.8km  73%  Mostly Cloudy 
 11/12/2019 - 16:00  -2.8°C  -7.7°C  1019.9 hPa  68%  14.3 km/h   36.7 km/h  4%  0.06 mm/h  12.8km  67%  Mostly Cloudy 
 11/12/2019 - 17:00  -3.3°C  -8.7°C  1020.1 hPa  70%  16.5 km/h   41.0 km/h  4%  0.04 mm/h  15.5km  66%  Mostly Cloudy 
 11/12/2019 - 18:00  -3.5°C  -9.6°C  1020.6 hPa  69%  19.6 km/h   45.7 km/h  2%  0.02 mm/h  16.1km  62%  Mostly Cloudy 
 11/12/2019 - 19:00  -3.9°C  -10.6°C  1021.3 hPa  67%  22.6 km/h   49.9 km/h  2%  0.02 mm/h  16.1km  58%  Partly Cloudy 
 11/12/2019 - 20:00  -4.4°C  -11.6°C  1022.0 hPa  64%  25.8 km/h   53.4 km/h  2%  0.01 mm/h  16.1km  54%  Partly Cloudy 
Test

 

Past weather and reports

Past weatherFind in this section the past weather conditions, weather archive, graphics, reports and statistics.

Current conditions

Current weather condition for MontrealAll you need to know about the current weather conditions for Montreal. Weather data is updated every 10 minutes.

Weather forecast

Current Montreal weatherSince 2004, celinium.com website has provided accurate weather forecast for Montreal's island.